createdAt,value
2019-04-14T00:02:07.404Z,20.90
2019-04-14T00:04:40.313Z,19.60
2019-04-14T00:07:10.174Z,19.57
2019-04-14T00:09:40.077Z,21.07
2019-04-14T00:12:12.090Z,21.13
2019-04-14T00:14:41.127Z,21.57
2019-04-14T00:17:12.970Z,19.90
2019-04-14T00:19:43.441Z,22.97
2019-04-14T00:22:12.707Z,22.97
2019-04-14T00:24:42.435Z,20.40
2019-04-14T00:27:12.734Z,20.60
2019-04-14T00:29:43.602Z,20.27
2019-04-14T00:32:14.100Z,21.60
2019-04-14T00:34:50.806Z,20.90
2019-04-14T00:37:22.650Z,19.13
2019-04-14T00:40:02.061Z,21.83
2019-04-14T00:42:36.458Z,23.20
2019-04-14T00:45:09.154Z,19.53
2019-04-14T00:47:51.741Z,19.03
2019-04-14T00:50:14.602Z,18.70
2019-04-14T00:52:43.710Z,22.60
2019-04-14T00:55:13.904Z,22.53
2019-04-14T00:57:42.779Z,18.83
2019-04-14T01:00:15.766Z,19.10
2019-04-14T01:02:45.029Z,19.60
2019-04-14T01:05:16.047Z,20.60
2019-04-14T01:07:45.636Z,20.00
2019-04-14T01:10:14.977Z,19.63
2019-04-14T01:12:45.230Z,18.57
2019-04-14T01:15:46.700Z,18.40
2019-04-14T01:18:04.083Z,18.57
2019-04-14T01:20:33.886Z,18.77
2019-04-14T01:23:04.171Z,18.07
2019-04-14T01:25:33.126Z,19.17
2019-04-14T01:28:02.517Z,16.87
2019-04-14T01:30:32.626Z,20.43
2019-04-14T01:33:01.608Z,20.13
2019-04-14T01:35:31.411Z,19.80
2019-04-14T01:38:01.524Z,16.27
2019-04-14T01:40:31.433Z,17.30
2019-04-14T01:43:01.594Z,16.93
2019-04-14T01:45:31.653Z,18.37
2019-04-14T01:48:01.703Z,16.33
2019-04-14T01:50:41.227Z,19.17
2019-04-14T01:53:18.261Z,17.30
2019-04-14T01:55:48.748Z,15.93
2019-04-14T01:58:22.867Z,15.40
2019-04-14T02:01:08.592Z,17.80
2019-04-14T02:03:38.551Z,16.27
2019-04-14T02:06:07.689Z,16.03
2019-04-14T02:08:37.207Z,15.63
2019-04-14T02:11:07.319Z,16.60
2019-04-14T02:13:37.460Z,15.07
2019-04-14T02:16:20.420Z,15.80
2019-04-14T02:18:38.305Z,16.33
2019-04-14T02:21:08.414Z,15.70
2019-04-14T02:23:38.574Z,17.27
2019-04-14T02:26:08.994Z,18.03
2019-04-14T02:28:38.072Z,17.83
2019-04-14T02:31:19.421Z,17.10
2019-04-14T02:34:00.591Z,16.80
2019-04-14T02:39:10.364Z,18.73
2019-04-14T02:41:43.594Z,16.83
2019-04-14T02:44:15.907Z,15.80
2019-04-14T02:46:47.653Z,16.23
2019-04-14T02:49:08.249Z,16.47
2019-04-14T02:51:33.729Z,17.80
2019-04-14T02:54:36.375Z,19.37
2019-04-14T02:56:30.833Z,16.43
2019-04-14T02:59:05.974Z,17.30
2019-04-14T03:01:38.938Z,16.43
2019-04-14T03:04:04.161Z,16.53
2019-04-14T03:06:41.647Z,16.47
2019-04-14T03:11:43.581Z,18.90
2019-04-14T03:17:14.239Z,16.83
2019-04-14T03:19:35.538Z,17.33
2019-04-14T03:22:21.719Z,18.43
2019-04-14T03:24:49.120Z,18.30
2019-04-14T03:30:39.310Z,18.13
2019-04-14T03:35:50.992Z,18.20
2019-04-14T03:40:18.202Z,18.60
2019-04-14T03:45:28.130Z,19.90
2019-04-14T03:48:15.166Z,18.67
2019-04-14T03:55:11.332Z,19.87
2019-04-14T03:57:28.560Z,19.30
2019-04-14T03:59:58.409Z,19.90
2019-04-14T04:02:27.352Z,18.40
2019-04-14T04:04:56.232Z,20.30
2019-04-14T04:07:25.694Z,18.60
2019-04-14T04:09:56.239Z,19.43
2019-04-14T04:12:25.180Z,18.80
2019-04-14T04:14:55.205Z,16.90
2019-04-14T04:17:38.640Z,20.17
2019-04-14T04:20:09.317Z,19.70
2019-04-14T04:22:39.780Z,19.37
2019-04-14T04:25:11.472Z,17.10
2019-04-14T04:27:59.079Z,17.40
2019-04-14T04:30:41.305Z,18.60
2019-04-14T04:33:11.757Z,17.93
2019-04-14T04:35:58.401Z,62.87
2019-04-14T04:38:29.134Z,23.83
2019-04-14T04:40:57.986Z,23.57
2019-04-14T04:43:27.663Z,20.35
2019-04-14T04:45:56.619Z,21.17
2019-04-14T04:48:26.411Z,19.30
2019-04-14T04:50:56.255Z,23.27
2019-04-14T04:53:26.563Z,19.10
2019-04-14T04:55:56.731Z,22.17
2019-04-14T04:58:26.243Z,23.67
2019-04-14T05:00:57.350Z,20.57
2019-04-14T05:03:25.672Z,20.77
2019-04-14T05:06:28.757Z,22.73
2019-04-14T05:09:16.562Z,21.40
2019-04-14T05:12:05.047Z,20.60
2019-04-14T05:14:35.473Z,21.80
2019-04-14T05:17:04.324Z,21.77
2019-04-14T05:19:36.430Z,22.10
2019-04-14T05:22:04.831Z,23.00
2019-04-14T05:24:33.759Z,21.60
2019-04-14T05:27:03.548Z,20.50
2019-04-14T05:29:32.497Z,21.13
2019-04-14T05:32:02.378Z,22.67
2019-04-14T05:34:32.547Z,22.30
2019-04-14T05:37:01.505Z,22.70
2019-04-14T05:39:30.784Z,20.80
2019-04-14T05:42:07.710Z,23.97
2019-04-14T05:44:31.717Z,23.10
2019-04-14T05:47:00.770Z,22.93
2019-04-14T05:49:38.194Z,27.33
2019-04-14T05:52:01.211Z,24.93
2019-04-14T05:54:30.162Z,22.53
2019-04-14T05:57:00.028Z,23.97
2019-04-14T05:59:28.940Z,23.53
2019-04-14T06:01:57.828Z,21.77
2019-04-14T06:04:26.675Z,22.57
2019-04-14T06:06:55.517Z,25.20
2019-04-14T06:09:24.404Z,23.63
2019-04-14T06:11:53.248Z,24.37
2019-04-14T06:14:22.088Z,24.77
2019-04-14T06:16:50.971Z,21.23
2019-04-14T06:19:19.822Z,23.33
2019-04-14T06:21:48.668Z,25.30
2019-04-14T06:24:17.561Z,22.37
2019-04-14T06:26:46.404Z,23.50
2019-04-14T06:29:15.250Z,23.07
2019-04-14T06:31:54.758Z,24.47
2019-04-14T06:34:25.167Z,24.00
2019-04-14T06:36:55.591Z,24.87
2019-04-14T06:39:32.174Z,22.43
2019-04-14T06:42:01.072Z,22.77
2019-04-14T06:44:29.962Z,21.23
2019-04-14T06:46:59.006Z,19.53
2019-04-14T06:49:27.845Z,20.70
2019-04-14T06:51:56.736Z,21.47
2019-04-14T06:54:25.626Z,22.07
2019-04-14T06:56:54.427Z,22.90
2019-04-14T06:59:23.276Z,21.57
2019-04-14T07:01:52.163Z,21.40
2019-04-14T07:04:21.015Z,22.53
2019-04-14T07:06:51.423Z,21.10
2019-04-14T07:09:20.446Z,21.87
2019-04-14T07:11:49.327Z,22.87
2019-04-14T07:14:18.179Z,22.00
2019-04-14T07:16:47.058Z,25.60
2019-04-14T07:19:15.903Z,23.93
2019-04-14T07:21:44.760Z,23.63
2019-04-14T07:24:13.631Z,22.03
2019-04-14T07:26:42.476Z,23.00
2019-04-14T07:29:11.321Z,24.03
2019-04-14T07:31:50.271Z,23.63
2019-04-14T07:34:20.686Z,23.90
2019-04-14T07:36:54.128Z,25.07
2019-04-14T07:39:24.543Z,23.63
2019-04-14T07:42:09.860Z,24.97
2019-04-14T07:44:40.280Z,21.67
2019-04-14T07:47:27.113Z,23.47
2019-04-14T07:49:57.540Z,21.77
2019-04-14T07:52:44.253Z,21.37
2019-04-14T07:55:18.923Z,24.33
2019-04-14T07:57:52.111Z,21.63
2019-04-14T08:00:25.283Z,20.17
2019-04-14T08:02:55.703Z,22.47
2019-04-14T08:05:38.081Z,21.67
2019-04-14T08:08:07.029Z,20.97
2019-04-14T08:10:35.913Z,19.00
2019-04-14T08:13:05.009Z,20.10
2019-04-14T08:15:33.856Z,20.93
2019-04-14T08:18:02.699Z,18.67
2019-04-14T08:20:31.580Z,17.53
2019-04-14T08:23:00.480Z,19.83
2019-04-14T08:25:29.325Z,21.17
2019-04-14T08:27:58.218Z,19.40
2019-04-14T08:30:27.063Z,18.40
2019-04-14T08:32:55.916Z,18.83
2019-04-14T08:35:24.800Z,17.87
2019-04-14T08:37:53.653Z,17.87
2019-04-14T08:40:22.509Z,18.17
2019-04-14T08:42:58.792Z,18.70
2019-04-14T08:45:45.242Z,17.33
2019-04-14T08:48:31.939Z,22.57
2019-04-14T08:51:18.732Z,17.10
2019-04-14T08:53:49.207Z,19.17
2019-04-14T08:56:19.637Z,18.57
2019-04-14T08:58:52.848Z,19.27
2019-04-14T09:01:32.132Z,18.43
2019-04-14T09:04:21.294Z,20.50
2019-04-14T09:06:54.693Z,19.20
2019-04-14T09:09:30.003Z,18.23
2019-04-14T09:12:15.379Z,16.73
2019-04-14T09:14:39.998Z,17.80
2019-04-14T09:17:08.993Z,18.60
2019-04-14T09:19:37.992Z,15.00
2019-04-14T09:22:06.978Z,17.80
2019-04-14T09:24:35.878Z,18.50
2019-04-14T09:27:04.862Z,16.97
2019-04-14T09:29:33.856Z,17.53
2019-04-14T09:32:03.158Z,19.67
2019-04-14T09:34:32.032Z,15.63
2019-04-14T09:37:00.902Z,20.83
2019-04-14T09:39:29.772Z,17.23
2019-04-14T09:41:58.967Z,20.00
2019-04-14T09:44:27.823Z,18.47
2019-04-14T09:46:56.664Z,18.33
2019-04-14T09:49:25.759Z,23.77
2019-04-14T09:51:54.623Z,21.10
2019-04-14T09:54:23.467Z,20.70
2019-04-14T09:56:52.389Z,21.80
2019-04-14T09:59:21.336Z,17.20
2019-04-14T10:01:50.254Z,14.30
2019-04-14T10:04:19.229Z,15.43
2019-04-14T10:06:48.137Z,15.13
2019-04-14T10:09:17.096Z,18.97
2019-04-14T10:11:48.981Z,17.60
2019-04-14T10:14:16.636Z,17.97
2019-04-14T10:16:45.488Z,15.90
2019-04-14T10:19:14.338Z,20.10
2019-04-14T10:21:43.240Z,15.23
2019-04-14T10:24:12.136Z,18.60
2019-04-14T10:26:41.096Z,18.60
2019-04-14T10:29:10.004Z,14.97
2019-04-14T10:31:38.847Z,17.47
2019-04-14T10:34:09.806Z,13.73
2019-04-14T10:36:38.228Z,16.80
2019-04-14T10:39:07.678Z,16.43
2019-04-14T10:41:36.524Z,17.97
2019-04-14T10:44:05.508Z,14.63
2019-04-14T10:46:34.361Z,17.10
2019-04-14T10:49:03.417Z,18.00
2019-04-14T10:51:34.040Z,16.17
2019-04-14T10:54:02.892Z,16.97
2019-04-14T10:56:31.793Z,16.20
2019-04-14T10:59:00.723Z,17.40
2019-04-14T11:01:30.394Z,16.63
2019-04-14T11:03:59.284Z,17.30
2019-04-14T11:06:29.765Z,15.90
2019-04-14T11:08:58.704Z,16.47
2019-04-14T11:11:27.595Z,21.97
2019-04-14T11:13:56.591Z,16.70
2019-04-14T11:16:25.581Z,19.60
2019-04-14T11:18:54.574Z,18.10
2019-04-14T11:21:23.457Z,15.30
2019-04-14T11:23:52.360Z,19.23
2019-04-14T11:26:21.355Z,20.87
2019-04-14T11:28:50.220Z,16.13
2019-04-14T11:31:20.667Z,19.90
2019-04-14T11:33:59.571Z,19.37
2019-04-14T11:36:46.183Z,20.10
2019-04-14T11:39:16.609Z,22.50
2019-04-14T11:41:45.498Z,19.10
2019-04-14T11:44:14.358Z,20.00
2019-04-14T11:46:43.196Z,19.77
2019-04-14T11:49:12.096Z,21.53
2019-04-14T11:51:40.930Z,25.13
2019-04-14T11:54:09.778Z,18.30
2019-04-14T11:56:38.665Z,21.93
2019-04-14T11:59:07.673Z,17.20
2019-04-14T12:01:56.303Z,21.50
2019-04-14T12:04:36.049Z,20.03
2019-04-14T12:07:06.636Z,21.03
2019-04-14T12:09:37.246Z,22.13
2019-04-14T12:12:07.672Z,24.30
2019-04-14T12:14:36.556Z,23.03
2019-04-14T12:17:05.641Z,23.17
2019-04-14T12:19:34.495Z,18.70
2019-04-14T12:22:08.419Z,23.00
2019-04-14T12:24:34.370Z,23.20
2019-04-14T12:27:03.372Z,25.47
2019-04-14T12:29:32.570Z,24.57
2019-04-14T12:32:01.885Z,31.73
2019-04-14T12:34:30.800Z,28.43
2019-04-14T12:36:59.784Z,25.10
2019-04-14T12:39:28.672Z,20.47
2019-04-14T12:42:05.590Z,24.40
2019-04-14T12:44:36.013Z,27.25
2019-04-14T12:47:22.415Z,26.13
2019-04-14T12:50:07.896Z,26.17
2019-04-14T12:52:36.779Z,23.70
2019-04-14T12:55:07.040Z,26.23
2019-04-14T12:57:37.447Z,25.23
2019-04-14T13:00:08.208Z,25.17
2019-04-14T13:02:38.719Z,25.20
2019-04-14T13:05:07.667Z,27.93
2019-04-14T13:07:36.970Z,30.87
2019-04-14T13:10:07.509Z,26.70
2019-04-14T13:12:36.360Z,22.70
2019-04-14T13:15:06.499Z,25.13
2019-04-14T13:17:36.452Z,31.10
2019-04-14T13:20:08.548Z,30.50
2019-04-14T13:22:37.388Z,25.90
2019-04-14T13:25:06.965Z,30.23
2019-04-14T13:27:38.012Z,23.93
2019-04-14T13:30:09.351Z,27.83
2019-04-14T13:32:38.233Z,28.73
2019-04-14T13:35:07.384Z,30.00
2019-04-14T13:37:36.256Z,26.17
2019-04-14T13:40:06.808Z,28.80
2019-04-14T13:42:35.743Z,26.70
2019-04-14T13:45:05.888Z,33.13
2019-04-14T13:47:34.771Z,30.43
2019-04-14T13:50:05.320Z,29.20
2019-04-14T13:52:46.132Z,28.37
2019-04-14T13:55:05.616Z,31.03
2019-04-14T13:57:34.460Z,29.87
2019-04-14T14:00:03.507Z,33.30
2019-04-14T14:02:32.392Z,30.47
2019-04-14T14:05:01.228Z,32.00
2019-04-14T14:07:30.172Z,31.57
2019-04-14T14:09:59.161Z,30.90
2019-04-14T14:12:29.668Z,30.53
2019-04-14T14:15:06.227Z,35.30
2019-04-14T14:17:51.819Z,33.73
2019-04-14T14:20:28.085Z,30.17
2019-04-14T14:23:01.452Z,29.53
2019-04-14T14:25:31.875Z,32.40
2019-04-14T14:28:00.747Z,32.60
2019-04-14T14:30:29.589Z,35.80
2019-04-14T14:32:58.433Z,33.37
2019-04-14T14:35:27.332Z,32.83
2019-04-14T14:37:56.177Z,36.93
2019-04-14T14:40:25.024Z,35.77
2019-04-14T14:42:53.913Z,42.93
2019-04-14T14:45:35.876Z,38.30
2019-04-14T14:48:24.761Z,39.70
2019-04-14T14:51:09.777Z,38.30
2019-04-14T14:53:38.656Z,37.43
2019-04-14T14:56:07.508Z,45.67
2019-04-14T14:58:36.355Z,36.23
2019-04-14T15:01:06.340Z,44.87
2019-04-14T15:03:35.181Z,35.87
2019-04-14T15:06:04.424Z,33.57
2019-04-14T15:08:33.304Z,45.83
2019-04-14T15:11:04.211Z,43.43
2019-04-14T15:13:32.744Z,37.23
2019-04-14T15:16:01.730Z,42.07
2019-04-14T15:18:30.570Z,46.17
2019-04-14T15:20:59.416Z,44.73
2019-04-14T15:23:28.299Z,40.40
2019-04-14T15:25:57.188Z,42.87
2019-04-14T15:28:26.111Z,40.67
2019-04-14T15:30:55.001Z,41.60
2019-04-14T15:33:23.852Z,47.40
2019-04-14T15:35:52.699Z,44.00
2019-04-14T15:38:21.583Z,46.60
2019-04-14T15:40:50.433Z,43.07
2019-04-14T15:43:19.280Z,44.07
2019-04-14T15:45:48.161Z,45.50
2019-04-14T15:48:17.002Z,41.63
2019-04-14T15:50:46.538Z,48.03
2019-04-14T15:53:15.424Z,44.00
2019-04-14T15:55:44.268Z,46.30
2019-04-14T15:58:20.409Z,40.27
2019-04-14T16:00:59.895Z,45.13
2019-04-14T16:03:45.208Z,39.10
2019-04-14T16:06:15.675Z,45.77
2019-04-14T16:09:00.934Z,51.20
2019-04-14T16:11:34.364Z,47.10
2019-04-14T16:14:21.031Z,48.67
2019-04-14T16:17:09.915Z,42.57
2019-04-14T16:19:45.720Z,46.17
2019-04-14T16:22:14.599Z,46.70
2019-04-14T16:24:43.447Z,46.90
2019-04-14T16:27:25.765Z,47.20
2019-04-14T16:29:58.924Z,43.80
2019-04-14T16:32:35.155Z,44.67
2019-04-14T16:35:05.681Z,43.10
2019-04-14T16:37:34.527Z,45.33
2019-04-14T16:40:03.534Z,46.57
2019-04-14T16:42:32.420Z,44.53
2019-04-14T16:45:01.261Z,44.83
2019-04-14T16:47:30.221Z,56.07
2019-04-14T16:49:59.550Z,43.67
2019-04-14T16:52:32.548Z,45.57
2019-04-14T16:55:09.052Z,48.10
2019-04-14T16:57:57.406Z,44.90
2019-04-14T17:00:27.856Z,44.73
2019-04-14T17:02:56.731Z,41.30
2019-04-14T17:05:25.559Z,45.03
2019-04-14T17:07:54.448Z,45.83
2019-04-14T17:10:23.312Z,49.23
2019-04-14T17:12:52.186Z,51.70
2019-04-14T17:15:22.640Z,47.53
2019-04-14T17:18:02.043Z,42.40
2019-04-14T17:20:47.705Z,56.40
2019-04-14T17:23:29.744Z,44.00
2019-04-14T17:26:06.183Z,46.67
2019-04-14T17:28:39.337Z,46.20
2019-04-14T17:31:26.071Z,41.17
2019-04-14T17:34:02.021Z,44.10
2019-04-14T17:36:35.204Z,44.27
2019-04-14T17:39:22.412Z,43.80
2019-04-14T17:41:58.860Z,42.37
2019-04-14T17:44:29.324Z,46.77
2019-04-14T17:47:02.728Z,38.43
2019-04-14T17:49:35.908Z,42.93
2019-04-14T17:52:22.341Z,45.90
2019-04-14T17:55:01.595Z,44.10
2019-04-14T17:57:34.765Z,44.83
2019-04-14T18:00:17.305Z,39.20
2019-04-14T18:02:59.714Z,43.23
2019-04-14T18:05:41.664Z,46.83
2019-04-14T18:08:12.372Z,48.27
2019-04-14T18:10:59.027Z,43.20
2019-04-14T18:13:29.910Z,48.80
2019-04-14T18:16:11.960Z,39.27
2019-04-14T18:18:58.792Z,45.00
2019-04-14T18:21:27.743Z,45.10
2019-04-14T18:23:56.605Z,48.60
2019-04-14T18:26:25.804Z,45.50
2019-04-14T18:28:56.219Z,46.80
2019-04-14T18:31:26.741Z,40.30
2019-04-14T18:34:12.463Z,49.90
2019-04-14T18:36:42.909Z,45.10
2019-04-14T18:39:16.071Z,39.87
2019-04-14T18:41:52.539Z,40.80
2019-04-14T18:44:34.908Z,46.80
2019-04-14T18:47:05.370Z,45.63
2019-04-14T18:49:47.716Z,41.97
2019-04-14T18:52:27.146Z,45.97
2019-04-14T18:55:03.192Z,45.30
2019-04-14T18:57:48.597Z,43.73
2019-04-14T19:00:22.295Z,49.10
2019-04-14T19:02:51.444Z,46.47
2019-04-14T19:05:20.741Z,42.30
2019-04-14T19:07:49.962Z,42.43
2019-04-14T19:10:18.918Z,47.77
2019-04-14T19:12:55.717Z,44.80
2019-04-14T19:15:29.305Z,45.47
2019-04-14T19:18:11.676Z,47.70
2019-04-14T19:20:42.161Z,53.93
2019-04-14T19:23:11.164Z,38.83
2019-04-14T19:25:40.046Z,43.97
2019-04-14T19:28:09.032Z,43.70
2019-04-14T19:30:37.931Z,47.73
2019-04-14T19:33:06.823Z,46.70
2019-04-14T19:35:35.691Z,44.77
2019-04-14T19:38:04.715Z,48.20
2019-04-14T19:40:35.650Z,44.20
2019-04-14T19:43:04.122Z,52.83
2019-04-14T19:45:33.696Z,47.70
2019-04-14T19:48:02.783Z,53.10
2019-04-14T19:50:32.184Z,43.17
2019-04-14T19:53:01.152Z,47.40
2019-04-14T19:55:30.412Z,49.00
2019-04-14T19:57:59.574Z,47.43
2019-04-14T20:00:28.465Z,45.63
2019-04-14T20:02:57.459Z,50.27
2019-04-14T20:05:26.342Z,47.63
2019-04-14T20:07:55.241Z,44.50
2019-04-14T20:10:24.233Z,49.20
2019-04-14T20:12:53.126Z,42.07
2019-04-14T20:15:23.654Z,50.23
2019-04-14T20:17:56.750Z,46.80
2019-04-14T20:20:43.860Z,48.03
2019-04-14T20:23:32.514Z,48.30
2019-04-14T20:26:19.705Z,45.17
2019-04-14T20:28:52.928Z,47.30
2019-04-14T20:31:38.752Z,43.87
2019-04-14T20:34:08.321Z,44.40
2019-04-14T20:36:38.692Z,43.60
2019-04-14T20:39:11.013Z,41.10
2019-04-14T20:41:40.523Z,42.63
2019-04-14T20:44:10.027Z,45.70
2019-04-14T20:46:39.023Z,41.80
2019-04-14T20:49:09.483Z,47.43
2019-04-14T20:51:38.440Z,41.47
2019-04-14T20:54:07.331Z,43.73
2019-04-14T20:56:36.222Z,50.10
2019-04-14T20:59:05.830Z,43.03
2019-04-14T21:01:36.256Z,50.13
2019-04-14T21:04:18.562Z,41.23
2019-04-14T21:06:52.060Z,44.70
2019-04-14T21:09:22.487Z,44.27
2019-04-14T21:11:59.160Z,44.73
2019-04-14T21:14:32.455Z,40.67
2019-04-14T21:17:21.212Z,44.30
2019-04-14T21:19:57.475Z,41.97
2019-04-14T21:22:28.004Z,41.97
2019-04-14T21:25:04.576Z,43.83
2019-04-14T21:27:35.039Z,42.83
2019-04-14T21:30:07.683Z,42.07
2019-04-14T21:32:38.108Z,46.93
2019-04-14T21:35:08.639Z,46.17
2019-04-14T21:37:39.168Z,44.60
2019-04-14T21:40:10.413Z,43.60
2019-04-14T21:42:40.943Z,45.20
2019-04-14T21:45:09.935Z,45.40
2019-04-14T21:47:38.813Z,43.60
2019-04-14T21:50:09.780Z,48.27
2019-04-14T21:52:40.294Z,46.70
2019-04-14T21:55:10.541Z,41.53
2019-04-14T21:57:41.051Z,44.13
2019-04-14T22:00:22.838Z,41.90
2019-04-14T22:03:09.752Z,41.67
2019-04-14T22:05:40.280Z,40.40
2019-04-14T22:08:10.810Z,42.43
2019-04-14T22:10:41.339Z,43.00
2019-04-14T22:13:10.334Z,38.00
2019-04-14T22:15:39.224Z,42.23
2019-04-14T22:18:08.115Z,44.20
2019-04-14T22:20:37.005Z,40.17
2019-04-14T22:23:08.149Z,40.53
2019-04-14T22:25:37.043Z,42.10
2019-04-14T22:28:06.646Z,39.03
2019-04-14T22:30:35.639Z,38.70
2019-04-14T22:33:06.278Z,42.30
2019-04-14T22:35:35.263Z,39.53
2019-04-14T22:38:04.960Z,40.00
2019-04-14T22:40:33.857Z,40.27
2019-04-14T22:43:02.758Z,38.37
2019-04-14T22:45:31.647Z,46.57
2019-04-14T22:48:00.643Z,42.90
2019-04-14T22:50:29.532Z,39.50
2019-04-14T22:52:58.423Z,38.80
2019-04-14T22:55:27.422Z,43.57
2019-04-14T22:57:56.511Z,38.20
2019-04-14T23:00:47.212Z,40.90
2019-04-14T23:03:23.890Z,42.63
2019-04-14T23:05:54.415Z,41.87
2019-04-14T23:08:24.950Z,44.47
2019-04-14T23:10:55.477Z,39.17
2019-04-14T23:13:35.321Z,37.50
2019-04-14T23:16:09.332Z,38.57
2019-04-14T23:18:42.626Z,40.63
2019-04-14T23:21:13.157Z,36.83
2019-04-14T23:23:52.901Z,40.80
2019-04-14T23:26:21.790Z,38.33
2019-04-14T23:28:50.683Z,38.90
2019-04-14T23:31:20.596Z,43.07
2019-04-14T23:33:49.590Z,40.40
2019-04-14T23:36:18.475Z,42.60
2019-04-14T23:38:47.475Z,38.97
2019-04-14T23:41:16.366Z,43.07
2019-04-14T23:43:45.255Z,39.93
2019-04-14T23:46:14.248Z,40.77
2019-04-14T23:48:43.245Z,43.37
2019-04-14T23:51:12.133Z,40.00
2019-04-14T23:53:41.127Z,34.93
2019-04-14T23:56:11.505Z,35.93
2019-04-14T23:58:40.443Z,36.57
